Time;durP1;ratioP1;P1;durP2;ratioP2;P2;SDS_P1;SDS_P2;PMS_P1;PMS_P2;Temp;Humidity;BMP_temperature;BMP_pressure;BME280_temperature;BME280_humidity;BME280_pressure;Samples;Min_cycle;Max_cycle;Signal;HPM_P1;HPM_P2
2023/01/18 00:00:36;;;;;;;23.45;15.65;;;;;;;4.21;100.00;97753.16;4994561;28;20027;-86
2023/01/18 00:03:03;;;;;;;23.00;14.23;;;;;;;4.34;100.00;97749.84;4997589;28;20038;-86
2023/01/18 00:05:29;;;;;;;23.85;15.40;;;;;;;4.18;100.00;97743.06;4998331;28;20046;-88
2023/01/18 00:07:55;;;;;;;26.80;16.60;;;;;;;4.10;100.00;97743.19;4991028;28;20537;-88
2023/01/18 00:10:21;;;;;;;31.27;16.75;;;;;;;4.08;100.00;97745.19;4987672;28;20018;-86
2023/01/18 00:12:47;;;;;;;24.30;15.32;;;;;;;4.28;100.00;97730.44;4977089;28;20043;-86
2023/01/18 00:15:13;;;;;;;29.88;16.20;;;;;;;4.26;100.00;97732.44;4976174;28;20031;-87
2023/01/18 00:17:50;;;;;;;25.60;15.93;;;;;;;4.05;100.00;97735.91;4974362;28;20039;-88
2023/01/18 00:20:17;;;;;;;28.33;16.73;;;;;;;4.21;100.00;97734.03;4994874;28;20042;-87
2023/01/18 00:22:43;;;;;;;25.58;15.32;;;;;;;4.02;100.00;97743.31;4976423;28;20141;-87
2023/01/18 00:25:10;;;;;;;29.05;17.00;;;;;;;4.18;100.00;97729.94;4975201;28;20118;-86
2023/01/18 00:27:36;;;;;;;28.83;17.33;;;;;;;4.08;100.00;97740.75;4976068;28;20034;-88
2023/01/18 00:30:09;;;;;;;28.40;16.17;;;;;;;4.21;100.00;97734.03;4989813;28;20039;-88
2023/01/18 00:32:36;;;;;;;30.63;16.10;;;;;;;4.23;100.00;97740.69;4975303;28;20424;-87
2023/01/18 00:35:06;;;;;;;26.55;15.98;;;;;;;4.41;100.00;97735.75;4958162;28;20035;-88
2023/01/18 00:37:34;;;;;;;27.98;15.82;;;;;;;4.51;100.00;97743.28;4975476;28;20043;-87
2023/01/18 00:40:00;;;;;;;27.48;16.10;;;;;;;4.43;100.00;97754.75;4973996;28;20043;-86
2023/01/18 00:45:10;;;;;;;27.95;15.70;;;;;;;4.18;100.00;97756.16;4979339;28;20381;-86
2023/01/18 00:47:35;;;;;;;25.77;15.35;;;;;;;4.27;100.00;97760.28;4979233;28;20053;-88
2023/01/18 00:50:01;;;;;;;27.15;15.75;;;;;;;4.13;100.00;97769.03;4979558;28;20030;-87
2023/01/18 00:52:27;;;;;;;25.55;15.88;;;;;;;4.23;100.00;97758.22;4979796;28;20038;-88
2023/01/18 00:54:52;;;;;;;30.02;16.67;;;;;;;4.13;100.00;97746.25;4994403;28;20122;-88
2023/01/18 00:57:18;;;;;;;35.15;16.08;;;;;;;4.05;100.00;97740.31;4979667;28;20035;-88
2023/01/18 00:59:45;;;;;;;26.20;15.57;;;;;;;4.22;100.00;97762.66;4989987;28;20495;-86
2023/01/18 01:02:11;;;;;;;25.85;14.75;;;;;;;4.18;100.00;97764.84;4991685;28;20050;-86
2023/01/18 01:07:21;;;;;;;24.23;14.95;;;;;;;4.20;100.00;97772.53;4984283;28;20050;-87
2023/01/18 01:09:46;;;;;;;26.00;15.30;;;;;;;4.24;100.00;97770.34;4982006;28;20042;-88
2023/01/18 01:26:12;;;;;;;25.50;14.88;;;;;;;3.91;100.00;97775.28;4978260;28;20035;-86
2023/01/18 01:28:40;;;;;;;26.80;15.05;;;;;;;4.02;100.00;97777.38;4978942;28;20053;-86
2023/01/18 01:31:08;;;;;;;24.42;14.68;;;;;;;4.01;100.00;97784.44;4978936;28;20392;-86
2023/01/18 01:33:34;;;;;;;25.13;14.80;;;;;;;3.95;100.00;97782.56;4994075;28;20034;-86
2023/01/18 01:36:12;;;;;;;26.48;14.65;;;;;;;3.89;100.00;97782.50;4978150;28;20416;-86
2023/01/18 01:38:38;;;;;;;23.85;14.02;;;;;;;3.78;100.00;97793.50;4994062;28;20399;-85
2023/01/18 01:41:15;;;;;;;24.67;14.25;;;;;;;3.78;100.00;97796.13;4978047;28;20053;-86
2023/01/18 01:43:47;;;;;;;22.35;14.25;;;;;;;3.85;100.00;97805.63;4979564;28;20165;-85
2023/01/18 01:46:21;;;;;;;23.75;14.20;;;;;;;3.97;100.00;97811.22;4995048;28;20094;-87
2023/01/18 01:48:47;;;;;;;24.02;14.55;;;;;;;3.79;100.00;97824.72;4980217;28;20074;-85
2023/01/18 01:51:17;;;;;;;23.30;14.25;;;;;;;3.94;100.00;97822.88;4977715;28;20031;-87
2023/01/18 01:53:44;;;;;;;21.50;13.73;;;;;;;3.94;100.00;97837.78;4977891;28;20035;-86
2023/01/18 01:56:11;;;;;;;23.70;14.10;;;;;;;3.92;100.00;97839.75;4977922;28;20053;-86
2023/01/18 01:58:38;;;;;;;22.88;14.50;;;;;;;4.05;100.00;97845.13;4964747;28;20051;-85
2023/01/18 02:01:04;;;;;;;21.42;13.95;;;;;;;4.01;100.00;97843.91;4978543;28;20042;-88
2023/01/18 02:03:30;;;;;;;23.45;14.77;;;;;;;3.76;100.00;97834.75;4978948;28;20322;-86
2023/01/18 02:06:12;;;;;;;23.17;14.23;;;;;;;3.63;100.00;97851.94;4994349;28;20047;-85
2023/01/18 02:08:39;;;;;;;24.15;15.02;;;;;;;3.67;100.00;97856.81;4980488;28;20038;-86
2023/01/18 02:11:04;;;;;;;25.88;15.05;;;;;;;3.72;100.00;97852.66;4979021;28;20035;-86
2023/01/18 02:13:30;;;;;;;27.05;14.93;;;;;;;3.88;100.00;97854.25;4978392;28;20113;-85
2023/01/18 02:16:27;;;;;;;25.27;14.85;;;;;;;3.85;100.00;97854.59;4977809;28;20122;-84
2023/01/18 02:19:25;;;;;;;23.80;14.43;;;;;;;3.86;100.00;97861.47;4978045;28;20059;-90
2023/01/18 02:22:28;;;;;;;23.90;14.45;;;;;;;3.91;100.00;97859.13;4979279;28;20481;-83
2023/01/18 02:25:30;;;;;;;23.92;14.48;;;;;;;3.96;100.00;97861.97;4979657;28;20079;-84
2023/01/18 02:28:04;;;;;;;19.23;11.37;;;;;;;3.87;100.00;97861.31;4979791;28;20035;-85
2023/01/18 02:30:38;;;;;;;23.65;14.52;;;;;;;3.67;100.00;97859.44;4979524;28;20031;-85
2023/01/18 02:33:39;;;;;;;25.17;15.30;;;;;;;3.59;100.00;97855.09;4980083;28;20035;-85
2023/01/18 02:36:05;;;;;;;24.05;13.63;;;;;;;3.77;100.00;97855.53;4921861;29;20040;-86
2023/01/18 02:38:44;;;;;;;24.92;14.52;;;;;;;3.74;100.00;97855.09;4934215;28;20040;-84
2023/01/18 02:47:12;;;;;;;23.02;14.05;;;;;;;3.84;100.00;97871.34;4997897;28;20107;-84
2023/01/18 02:49:38;;;;;;;24.08;13.90;;;;;;;4.03;100.00;97873.34;4999975;28;20038;-86
2023/01/18 02:52:05;;;;;;;22.08;14.68;;;;;;;3.81;100.00;97874.31;5014576;28;20046;-88
2023/01/18 02:54:37;;;;;;;24.42;14.30;;;;;;;3.87;100.00;97878.81;5034288;28;20042;-87
2023/01/18 02:57:09;;;;;;;23.90;14.23;;;;;;;3.85;100.00;97886.03;5018213;28;20026;-87
2023/01/18 02:59:37;;;;;;;;;;;;;;;3.79;100.00;97871.06;5018974;28;20101;-86
2023/01/18 03:02:11;;;;;;;25.98;14.88;;;;;;;3.81;100.00;97869.88;5018821;28;20030;-85
2023/01/18 03:04:55;;;;;;;23.85;14.18;;;;;;;3.86;100.00;97861.47;5018167;28;20077;-84
2023/01/18 03:07:27;;;;;;;25.27;14.48;;;;;;;3.96;100.00;97861.97;5017718;28;20038;-84
2023/01/18 03:09:55;;;;;;;25.60;14.70;;;;;;;4.10;100.00;97863.75;5018578;28;20030;-87
2023/01/18 03:12:44;;;;;;;23.02;14.07;;;;;;;4.04;100.00;97864.50;5018546;28;20010;-86
2023/01/18 03:15:25;;;;;;;25.75;15.15;;;;;;;3.99;100.00;97859.00;5018803;28;20034;-86
2023/01/18 03:17:56;;;;;;;24.00;14.82;;;;;;;3.69;100.00;97844.34;5019046;28;20050;-87
2023/01/18 03:20:26;;;;;;;26.15;14.70;;;;;;;3.86;100.00;97848.38;5018206;28;20038;-85
2023/01/18 03:25:53;;;;;;;29.35;15.15;;;;;;;3.79;100.00;97871.06;5018983;28;20054;-84
2023/01/18 03:34:39;;;;;;;25.63;14.57;;;;;;;3.77;100.00;97881.72;5017789;28;20034;-87
2023/01/18 03:37:14;;;;;;;25.50;14.77;;;;;;;3.79;100.00;97881.53;5034470;28;20102;-89
2023/01/18 03:39:45;;;;;;;27.02;15.82;;;;;;;3.63;100.00;97888.63;5018758;28;20082;-87
2023/01/18 03:42:20;;;;;;;29.98;16.65;;;;;;;3.59;100.00;97892.59;5018285;28;20100;-87
2023/01/18 03:45:22;;;;;;;43.45;20.27;;;;;;;3.48;100.00;97890.41;5018272;28;20023;-86
2023/01/18 03:47:49;;;;;;;52.72;22.92;;;;;;;3.59;100.00;97892.59;5017663;28;20057;-87
2023/01/18 03:50:15;;;;;;;64.38;24.52;;;;;;;3.63;100.00;97893.84;5018281;28;20107;-85
2023/01/18 03:52:43;;;;;;;62.28;25.48;;;;;;;3.67;100.00;97899.53;5001508;28;20043;-86
2023/01/18 03:55:35;;;;;;;60.10;24.92;;;;;;;3.55;100.00;97900.97;5016936;28;20049;-88
2023/01/18 03:58:08;;;;;;;62.53;24.13;;;;;;;3.63;100.00;97909.56;5018266;28;20030;-85
2023/01/18 04:00:34;;;;;;;66.80;25.48;;;;;;;3.70;100.00;97903.59;5017997;28;20115;-87
2023/01/18 04:03:00;;;;;;;61.53;26.08;;;;;;;3.75;100.00;97911.69;5018169;28;20010;-87
2023/01/18 04:05:25;;;;;;;59.10;24.08;;;;;;;3.70;100.00;97919.31;5017859;28;20037;-87
2023/01/18 04:07:53;;;;;;;63.80;24.73;;;;;;;3.72;100.00;97917.31;5018268;28;20022;-86
2023/01/18 04:10:19;;;;;;;58.95;23.23;;;;;;;3.84;100.00;97918.50;5017943;28;20035;-87
2023/01/18 04:12:45;;;;;;;60.90;23.65;;;;;;;3.74;100.00;97910.09;5018066;28;20050;-86
2023/01/18 04:15:16;;;;;;;54.60;22.95;;;;;;;3.88;100.00;97919.75;5017964;28;20103;-84
2023/01/18 04:17:41;;;;;;;53.60;22.85;;;;;;;3.57;100.00;97914.72;5017961;28;20096;-85
2023/01/18 04:20:08;;;;;;;46.60;20.77;;;;;;;3.57;100.00;97910.31;5018076;28;20026;-86
2023/01/18 04:22:33;;;;;;;39.35;19.88;;;;;;;3.80;100.00;97914.59;5017403;28;20018;-90
2023/01/18 04:24:59;;;;;;;41.53;18.75;;;;;;;3.97;100.00;97921.25;5017765;28;20053;-85
2023/01/18 04:27:24;;;;;;;35.28;16.08;;;;;;;3.95;100.00;97923.25;5017714;28;20021;-84
2023/01/18 04:29:50;;;;;;;39.80;18.08;;;;;;;3.84;100.00;97926.34;5017281;28;20038;-85
2023/01/18 04:32:18;;;;;;;32.35;17.10;;;;;;;3.83;100.00;97924.72;5017400;28;20030;-86
2023/01/18 04:34:44;;;;;;;30.25;15.50;;;;;;;3.78;100.00;97927.88;5016608;28;20503;-86
2023/01/18 04:37:09;;;;;;;36.45;17.80;;;;;;;3.71;100.00;97932.22;5017063;28;20022;-86
2023/01/18 04:39:35;;;;;;;31.50;16.38;;;;;;;3.61;100.00;97932.47;5018119;28;20043;-87
2023/01/18 04:42:00;;;;;;;37.50;16.77;;;;;;;3.60;100.00;97930.88;5017409;28;20038;-86
2023/01/18 04:44:26;;;;;;;28.80;16.05;;;;;;;3.60;100.00;97941.34;5017453;28;20032;-85
2023/01/18 04:46:51;;;;;;;32.03;16.48;;;;;;;3.57;100.00;97941.72;5017696;28;20061;-86
2023/01/18 04:49:17;;;;;;;32.65;15.68;;;;;;;3.58;100.00;97932.84;5017516;28;20046;-87
2023/01/18 04:51:44;;;;;;;33.88;17.27;;;;;;;3.37;100.00;97930.16;5017798;28;20099;-87
2023/01/18 04:54:10;;;;;;;36.10;17.63;;;;;;;3.40;100.00;97927.19;5017558;28;20026;-87
2023/01/18 04:56:39;;;;;;;35.95;17.25;;;;;;;3.39;100.00;97916.88;5017348;28;20030;-86
2023/01/18 04:59:05;;;;;;;27.95;15.57;;;;;;;3.49;100.00;97930.50;5016996;28;20019;-87
2023/01/18 05:01:32;;;;;;;26.27;15.32;;;;;;;3.65;100.00;97930.31;5032018;28;20026;-87
2023/01/18 05:03:57;;;;;;;31.73;16.30;;;;;;;3.68;100.00;97931.78;5013191;28;20049;-86
2023/01/18 05:06:23;;;;;;;27.65;15.05;;;;;;;3.52;100.00;97932.75;5008387;28;20030;-87
2023/01/18 05:08:49;;;;;;;29.15;15.65;;;;;;;3.53;100.00;97940.44;5005322;28;20046;-85
2023/01/18 05:11:18;;;;;;;37.03;17.10;;;;;;;3.30;100.00;97944.94;5028932;28;20085;-84
2023/01/18 05:13:44;;;;;;;40.15;19.20;;;;;;;3.26;100.00;97940.25;5031124;28;20054;-86
2023/01/18 05:16:13;;;;;;;49.10;19.75;;;;;;;3.17;100.00;97950.00;5012511;28;20058;-86
2023/01/18 05:18:39;;;;;;;46.03;20.83;;;;;;;3.13;100.00;97954.75;5014596;28;20042;-87
2023/01/18 05:21:05;;;;;;;48.30;20.85;;;;;;;3.08;100.00;97956.28;5016421;28;20065;-88
2023/01/18 05:23:30;;;;;;;59.25;21.17;;;;;;;3.20;100.00;97954.88;5016841;28;20031;-88
2023/01/18 05:25:57;;;;;;;51.08;21.38;;;;;;;3.40;100.00;97966.44;5017264;28;20022;-89
2023/01/18 05:28:24;;;;;;;48.75;20.98;;;;;;;3.48;100.00;97974.19;5018596;28;20038;-88
2023/01/18 05:30:51;;;;;;;48.13;22.50;;;;;;;3.27;100.00;97971.47;5021085;28;20081;-88
2023/01/18 05:33:17;;;;;;;46.97;21.13;;;;;;;3.21;100.00;97980.06;5021177;28;20010;-87
2023/01/18 05:35:53;;;;;;;42.42;20.00;;;;;;;3.46;100.00;97985.84;5020993;28;20046;-87
2023/01/18 05:38:20;;;;;;;43.88;21.27;;;;;;;3.09;100.00;97991.91;5021286;28;20030;-87
2023/01/18 05:40:51;;;;;;;46.03;21.52;;;;;;;2.87;100.00;97998.00;5021043;28;20022;-90
2023/01/18 05:43:18;;;;;;;45.70;21.20;;;;;;;2.75;100.00;98010.66;5021099;28;20027;-87
2023/01/18 05:45:43;;;;;;;45.28;20.83;;;;;;;2.70;100.00;98018.22;5019623;28;20043;-84
2023/01/18 05:48:13;;;;;;;35.65;18.85;;;;;;;2.52;100.00;98025.50;5018990;28;20042;-89
2023/01/18 05:50:40;;;;;;;38.95;18.75;;;;;;;2.52;100.00;98013.25;5019375;28;20023;-84
2023/01/18 05:53:13;;;;;;;33.80;18.75;;;;;;;2.57;100.00;98013.56;5010054;28;20035;-83
2023/01/18 05:55:39;;;;;;;39.58;18.85;;;;;;;2.70;100.00;98020.00;5018947;28;20037;-83
2023/01/18 05:58:04;;;;;;;41.17;18.88;;;;;;;2.66;100.00;98018.72;5019245;28;20035;-86
2023/01/18 06:00:30;;;;;;;36.80;19.42;;;;;;;2.67;100.00;98020.34;5020281;28;20031;-84
2023/01/18 06:02:56;;;;;;;35.83;18.27;;;;;;;2.66;100.00;98030.00;5005009;28;20041;-87
2023/01/18 06:05:22;;;;;;;33.58;17.25;;;;;;;2.83;100.00;98030.72;5015626;28;20090;-87
2023/01/18 06:07:48;;;;;;;34.80;19.05;;;;;;;2.71;100.00;98027.69;4999863;28;20011;-84
2023/01/18 06:10:15;;;;;;;35.60;17.75;;;;;;;2.82;100.00;98031.69;5000352;28;20103;-86
2023/01/18 06:12:47;;;;;;;32.55;16.75;;;;;;;2.86;100.00;98046.06;5000341;28;20019;-86
2023/01/18 06:15:16;;;;;;;34.65;18.45;;;;;;;2.90;100.00;98052.56;4999400;28;20125;-89
2023/01/18 06:17:46;;;;;;;29.40;16.67;;;;;;;2.78;100.00;98051.34;5000403;28;20050;-88
2023/01/18 06:20:12;;;;;;;34.35;17.25;;;;;;;2.77;100.00;98047.09;4999224;28;20034;-86
2023/01/18 06:22:40;;;;;;;35.65;18.30;;;;;;;2.77;100.00;98052.31;4999913;28;20034;-85
2023/01/18 06:25:08;;;;;;;41.33;18.88;;;;;;;2.71;100.00;98053.03;5000371;28;20026;-87
2023/01/18 06:27:38;;;;;;;34.70;17.70;;;;;;;2.82;100.00;98055.22;5000004;28;20023;-86
2023/01/18 06:30:09;;;;;;;36.60;17.77;;;;;;;2.99;100.00;98056.75;5000076;28;20037;-82
2023/01/18 06:32:38;;;;;;;32.42;18.20;;;;;;;2.95;100.00;98071.19;5000659;28;20091;-87
2023/01/18 06:35:07;;;;;;;38.50;19.98;;;;;;;3.03;100.00;98068.50;4999504;28;20030;-87
2023/01/18 06:37:32;;;;;;;35.78;19.25;;;;;;;3.06;100.00;98065.53;4999054;28;20034;-87
2023/01/18 06:39:58;;;;;;;38.38;20.05;;;;;;;3.08;100.00;98066.19;4999465;28;20118;-88
2023/01/18 06:42:25;;;;;;;41.63;21.02;;;;;;;3.12;100.00;98075.28;4999422;28;20051;-85
2023/01/18 06:44:51;;;;;;;41.05;20.80;;;;;;;3.13;100.00;98084.78;4999533;28;20027;-89
2023/01/18 06:47:18;;;;;;;40.50;20.90;;;;;;;3.14;100.00;98089.03;4999177;28;20023;-88
2023/01/18 06:49:46;;;;;;;39.80;20.25;;;;;;;3.02;100.00;98085.19;4999397;28;20051;-87
2023/01/18 06:52:15;;;;;;;40.97;19.73;;;;;;;3.03;100.00;98068.50;5015333;28;20073;-89
2023/01/18 06:54:41;;;;;;;40.20;20.35;;;;;;;3.05;100.00;98066.50;5015297;28;20037;-90
2023/01/18 06:57:06;;;;;;;38.50;19.08;;;;;;;3.26;100.00;98068.50;4999100;28;20019;-90
2023/01/18 06:59:55;;;;;;;34.88;18.98;;;;;;;3.40;100.00;98076.41;4983300;28;20043;-87
2023/01/18 07:02:21;;;;;;;30.50;17.25;;;;;;;3.43;100.00;98077.84;4999714;28;20027;-88
2023/01/18 07:04:47;;;;;;;35.80;18.80;;;;;;;3.27;100.00;98070.94;4999613;28;20111;-88
2023/01/18 07:07:13;;;;;;;40.13;20.08;;;;;;;3.15;100.00;98074.94;4999567;28;20041;-87
2023/01/18 07:09:38;;;;;;;41.25;21.10;;;;;;;3.34;100.00;98087.56;5015346;28;20039;-89
2023/01/18 07:12:04;;;;;;;40.35;19.83;;;;;;;3.52;100.00;98090.69;5015268;28;20034;-88
2023/01/18 07:14:33;;;;;;;48.42;22.00;;;;;;;3.40;100.00;98096.53;4999563;28;20023;-88
2023/01/18 07:16:58;;;;;;;38.35;19.98;;;;;;;3.22;100.00;98083.72;4999882;28;20019;-90
2023/01/18 07:19:24;;;;;;;47.33;22.67;;;;;;;3.18;100.00;98097.34;4998995;28;20030;-90
2023/01/18 07:21:52;;;;;;;46.83;22.92;;;;;;;3.09;100.00;98105.25;4999793;28;20177;-92
2023/01/18 07:24:20;;;;;;;43.47;21.98;;;;;;;3.19;100.00;98114.66;4998512;28;20018;-90
2023/01/18 07:26:46;;;;;;;45.75;22.33;;;;;;;3.16;100.00;98110.59;4999054;28;20023;-92
2023/01/18 07:29:12;;;;;;;47.30;21.02;;;;;;;3.37;100.00;98097.69;4999302;28;20042;-90
2023/01/18 07:31:39;;;;;;;45.45;21.75;;;;;;;3.42;100.00;98108.44;4998378;28;20178;-89
2023/01/18 07:34:05;;;;;;;37.28;20.17;;;;;;;3.47;100.00;98103.50;5013557;28;20031;-90
2023/01/18 07:36:31;;;;;;;38.72;20.27;;;;;;;3.25;100.00;98104.31;4997984;28;20031;-90
2023/01/18 07:38:56;;;;;;;45.50;22.58;;;;;;;3.16;100.00;98100.13;5013924;28;20035;-90
2023/01/18 07:41:59;;;;;;;39.85;19.80;;;;;;;3.07;100.00;98102.00;4996899;28;20047;-90
2023/01/18 07:44:26;;;;;;;43.97;22.88;;;;;;;3.00;100.00;98108.91;4994319;28;20054;-90
2023/01/18 07:46:52;;;;;;;45.35;22.05;;;;;;;3.15;100.00;98119.44;4998206;28;20098;-90
2023/01/18 07:49:17;;;;;;;42.47;21.30;;;;;;;3.12;100.00;98119.78;4997380;28;20038;-90
2023/01/18 07:51:45;;;;;;;41.33;20.55;;;;;;;3.03;100.00;98115.59;4995732;28;20023;-90
2023/01/18 07:54:11;;;;;;;38.97;21.05;;;;;;;2.92;100.00;98124.66;4998480;28;20023;-89
2023/01/18 07:56:37;;;;;;;42.20;21.75;;;;;;;2.96;100.00;98125.13;4998499;28;20086;-90
2023/01/18 07:59:03;;;;;;;43.22;21.17;;;;;;;3.12;100.00;98135.47;4997695;28;20145;-89
2023/01/18 08:01:30;;;;;;;44.97;22.27;;;;;;;3.15;100.00;98139.56;4996553;28;20039;-88
2023/01/18 08:03:55;;;;;;;42.42;21.48;;;;;;;3.28;100.00;98138.00;4996154;28;20078;-87
2023/01/18 08:06:26;;;;;;;42.60;21.27;;;;;;;3.21;100.00;98144.94;4996150;28;20019;-89
2023/01/18 08:08:54;;;;;;;41.63;21.17;;;;;;;3.28;100.00;98145.06;4997753;28;20049;-88
2023/01/18 08:11:20;;;;;;;41.72;21.05;;;;;;;3.24;100.00;98141.16;4997547;28;20038;-87
2023/01/18 08:13:48;;;;;;;43.22;21.70;;;;;;;3.31;100.00;98150.75;4996797;28;20043;-89
2023/01/18 08:16:14;;;;;;;41.90;21.67;;;;;;;3.42;100.00;98152.94;4995937;28;20026;-88
2023/01/18 08:18:40;;;;;;;39.90;21.13;;;;;;;3.45;100.00;98155.22;4993507;28;20391;-88
2023/01/18 08:21:11;;;;;;;41.50;21.88;;;;;;;3.43;100.00;98157.19;5009500;28;20427;-89
2023/01/18 08:23:38;;;;;;;45.88;22.00;;;;;;;3.42;100.00;98155.56;4992724;28;20086;-88
2023/01/18 08:26:04;;;;;;;45.40;23.08;;;;;;;3.39;100.00;98163.78;5005761;28;20026;-88
2023/01/18 08:28:30;;;;;;;49.72;23.73;;;;;;;3.35;100.00;98157.25;5015220;28;20137;-87
2023/01/18 08:31:06;;;;;;;47.50;23.00;;;;;;;3.33;100.00;98148.75;5018017;28;20037;-88
2023/01/18 08:33:35;;;;;;;42.03;22.63;;;;;;;3.53;100.00;98147.31;5017142;28;20035;-87
2023/01/18 08:36:01;;;;;;;38.38;21.10;;;;;;;3.50;100.00;98162.56;5015856;28;20044;-86
2023/01/18 08:38:26;;;;;;;40.58;22.23;;;;;;;3.68;100.00;98172.75;5008828;28;20042;-89
2023/01/18 08:41:14;;;;;;;41.25;21.65;;;;;;;3.66;100.00;98193.84;5013512;28;20042;-88
2023/01/18 08:43:39;;;;;;;36.03;20.08;;;;;;;3.82;100.00;98187.66;5010510;28;20042;-89
2023/01/18 08:46:05;;;;;;;36.88;19.52;;;;;;;3.97;100.00;98185.91;5009872;28;20038;-88
2023/01/18 08:48:30;;;;;;;34.70;19.25;;;;;;;3.92;100.00;98185.63;5007534;28;20030;-89
2023/01/18 08:51:01;;;;;;;38.45;20.08;;;;;;;3.84;100.00;98185.72;5008032;28;20038;-88
2023/01/18 08:53:27;;;;;;;38.05;20.27;;;;;;;3.93;100.00;98193.31;5020276;28;20038;-87
2023/01/18 08:55:52;;;;;;;36.70;19.20;;;;;;;4.08;100.00;98203.81;5005405;28;20030;-88
2023/01/18 08:58:18;;;;;;;40.42;19.98;;;;;;;3.89;100.00;98206.94;5002400;28;20044;-89
2023/01/18 09:00:44;;;;;;;39.67;18.75;;;;;;;3.96;100.00;98203.44;4999245;28;20045;-90
2023/01/18 09:03:13;;;;;;;39.60;19.50;;;;;;;3.91;100.00;98204.97;5001336;28;20030;-88
2023/01/18 09:05:39;;;;;;;36.85;20.00;;;;;;;3.90;100.00;98225.13;5004216;28;20030;-87
2023/01/18 09:08:04;;;;;;;37.95;19.17;;;;;;;4.01;100.00;98226.50;5006919;28;20076;-89
2023/01/18 09:10:31;;;;;;;38.50;21.15;;;;;;;3.99;100.00;98218.00;5023855;28;20035;-88
2023/01/18 09:12:57;;;;;;;42.63;22.42;;;;;;;4.12;100.00;98215.59;5009254;28;20038;-89
2023/01/18 09:15:22;;;;;;;40.47;21.40;;;;;;;4.31;100.00;98222.16;5012073;28;20038;-90
2023/01/18 09:17:48;;;;;;;42.78;20.88;;;;;;;4.53;100.00;98229.94;5008905;28;20052;-89
2023/01/18 09:20:13;;;;;;;44.13;21.75;;;;;;;4.63;100.00;98230.50;5015575;28;20127;-89
2023/01/18 09:22:41;;;;;;;42.20;21.60;;;;;;;4.86;100.00;98234.81;5011830;28;20534;-90
2023/01/18 09:25:07;;;;;;;39.20;20.77;;;;;;;5.06;100.00;98246.41;5013532;28;20030;-89
2023/01/18 09:27:32;;;;;;;40.38;20.13;;;;;;;5.04;100.00;98256.25;5016096;28;20022;-88
2023/01/18 09:29:59;;;;;;;41.97;20.20;;;;;;;5.06;100.00;98268.22;5010097;28;20073;-88
2023/01/18 09:32:26;;;;;;;37.90;19.35;;;;;;;5.31;100.00;98268.72;5011984;28;20038;-90
2023/01/18 09:34:51;;;;;;;37.65;20.58;;;;;;;5.57;100.00;98266.41;5010816;28;20041;-89
2023/01/18 09:37:18;;;;;;;42.67;21.38;;;;;;;5.58;100.00;98275.09;5008410;28;20034;-89
2023/01/18 09:39:43;;;;;;;41.63;21.35;;;;;;;5.67;100.00;98297.63;5008424;28;20042;-89
2023/01/18 09:42:17;;;;;;;39.45;20.77;;;;;;;5.68;100.00;98297.47;5011481;28;20492;-89
2023/01/18 09:44:44;;;;;;;34.28;19.50;;;;;;;5.75;100.00;98310.66;5008272;28;20031;-89
2023/01/18 09:47:24;;;;;;;57.17;22.55;;;;;;;5.60;100.00;98323.81;5009411;28;20034;-90
2023/01/18 09:49:55;;;;;;;45.25;21.67;;;;;;;5.57;100.00;98329.44;5021834;28;20480;-88
2023/01/18 09:52:33;;;;;;;38.88;21.55;;;;;;;5.42;100.00;98327.84;5022920;28;20098;-89
2023/01/18 09:55:04;;;;;;;39.75;20.65;;;;;;;5.55;100.00;98336.72;5024191;28;20046;-89
2023/01/18 09:57:36;;;;;;;42.22;21.00;;;;;;;5.67;100.00;98353.63;5024020;28;20042;-90
2023/01/18 10:00:21;;;;;;;;;;;;;;;5.81;100.00;98345.91;5010083;28;20042;-89
2023/01/18 10:02:52;;;;;;;38.45;20.58;;;;;;;5.86;100.00;98346.22;5010612;28;19918;-89
2023/01/18 10:05:25;;;;;;;38.67;21.20;;;;;;;5.53;100.00;98357.13;5009225;28;20042;-90
2023/01/18 10:08:01;;;;;;;37.13;19.40;;;;;;;5.42;100.00;98362.81;5005449;28;20476;-90
2023/01/18 10:11:04;;;;;;;37.25;19.65;;;;;;;5.43;100.00;98367.09;5007975;28;20042;-88
2023/01/18 10:13:49;;;;;;;39.78;21.95;;;;;;;5.24;100.00;98367.59;5007881;28;20038;-88
2023/01/18 10:16:15;;;;;;;41.50;20.63;;;;;;;5.11;100.00;98377.91;5024367;28;20038;-90
2023/01/18 10:18:47;;;;;;;43.03;20.90;;;;;;;5.17;100.00;98387.72;5006945;28;20042;-87
2023/01/18 10:21:46;;;;;;;35.95;19.75;;;;;;;5.11;100.00;98388.44;4991380;28;20054;-89
2023/01/18 10:24:16;;;;;;;36.22;19.88;;;;;;;4.85;100.00;98385.41;5009035;28;20038;-90
2023/01/18 10:26:43;;;;;;;39.35;21.08;;;;;;;4.61;100.00;98371.50;5023025;28;20078;-90
2023/01/18 10:29:40;;;;;;;43.72;20.98;;;;;;;4.53;100.00;98378.63;5012685;28;20034;-88
2023/01/18 10:32:16;;;;;;;41.30;22.52;;;;;;;4.78;100.00;98376.59;5017190;28;20038;-88
2023/01/18 10:34:48;;;;;;;42.38;21.42;;;;;;;4.65;100.00;98378.03;5000427;28;20064;-90
2023/01/18 10:37:37;;;;;;;40.93;22.07;;;;;;;4.65;100.00;98378.03;5000807;28;20038;-88
2023/01/18 10:46:20;;;;;;;48.22;23.48;;;;;;;4.98;100.00;98361.97;5039445;23;20040;-86
2023/01/18 10:48:49;;;;;;;41.67;22.42;;;;;;;5.10;100.00;98365.81;5015828;28;20049;-90
2023/01/18 10:51:34;;;;;;;47.10;23.55;;;;;;;5.21;100.00;98373.22;5021555;28;20030;-85
2023/01/18 10:54:41;;;;;;;42.95;22.67;;;;;;;5.51;100.00;98374.03;5019333;28;20056;-86
2023/01/18 10:57:37;;;;;;;48.78;23.65;;;;;;;5.36;100.00;98376.69;4945085;29;20099;-86
2023/01/18 11:00:20;;;;;;;43.97;21.67;;;;;;;5.24;100.00;98369.44;4941700;29;20748;-87
2023/01/18 11:02:48;;;;;;;45.65;23.05;;;;;;;5.03;100.00;98364.91;4941561;29;20051;-91
2023/01/18 11:05:44;;;;;;;44.63;23.90;;;;;;;5.09;100.00;98375.50;5010352;23;20078;-89
2023/01/18 11:08:32;;;;;;;50.13;24.40;;;;;;;5.11;100.00;98373.50;5015579;23;20138;-89
2023/01/18 11:14:30;;;;;;;41.00;22.15;;;;;;;5.21;100.00;98367.97;5014371;28;20039;-90
2023/01/18 11:17:16;;;;;;;56.17;23.75;;;;;;;5.33;100.00;98361.28;5009546;28;20032;-87
2023/01/18 11:20:04;;;;;;;45.90;24.65;;;;;;;5.33;100.00;98361.28;5018989;28;20037;-89
2023/01/18 11:22:37;;;;;;;43.60;23.70;;;;;;;5.43;100.00;98358.38;5012729;28;20036;-88
2023/01/18 11:25:50;;;;;;;45.22;24.65;;;;;;;5.52;100.00;98352.84;5013236;28;20085;-85
2023/01/18 11:29:09;;;;;;;49.97;24.42;;;;;;;5.67;100.00;98358.06;4996432;23;20046;-88
2023/01/18 11:34:29;;;;;;;50.58;26.40;;;;;;;5.83;100.00;98357.06;4998990;28;20121;-89
2023/01/18 11:36:56;;;;;;;45.80;25.00;;;;;;;5.89;100.00;98370.31;4999918;28;20031;-90
2023/01/18 11:39:23;;;;;;;51.92;27.00;;;;;;;6.07;100.00;98369.88;4996094;28;20063;-92
2023/01/18 11:41:50;;;;;;;46.38;25.10;;;;;;;6.12;100.00;98370.16;4993107;28;20042;-89
2023/01/18 11:44:29;;;;;;;51.30;25.13;;;;;;;6.13;100.00;98369.97;4995234;28;20042;-87
2023/01/18 11:46:58;;;;;;;47.03;25.88;;;;;;;5.97;100.00;98374.63;4969514;28;20103;-91
2023/01/18 11:49:35;;;;;;;45.00;23.83;;;;;;;6.10;100.00;98377.41;5020630;28;20042;-90
2023/01/18 11:52:26;;;;;;;48.40;25.73;;;;;;;6.08;100.00;98382.03;5010024;28;20069;-89
2023/01/18 11:55:30;;;;;;;46.50;25.48;;;;;;;6.02;100.00;98372.28;5009012;28;20073;-87
2023/01/18 11:58:31;;;;;;;44.47;24.95;;;;;;;5.88;100.00;98373.13;5013126;28;20066;-90
2023/01/18 12:01:25;;;;;;;48.33;24.65;;;;;;;6.07;100.00;98365.44;5008580;28;20085;-86
2023/01/18 12:03:53;;;;;;;45.42;25.25;;;;;;;6.28;100.00;98367.28;4969048;28;20053;-90
2023/01/18 12:06:37;;;;;;;43.25;23.10;;;;;;;6.31;100.00;98376.63;5004274;28;20158;-87
2023/01/18 12:09:22;;;;;;;47.15;23.67;;;;;;;6.24;100.00;98379.19;5001598;28;20701;-88
2023/01/18 12:12:14;;;;;;;44.00;24.20;;;;;;;6.27;100.00;98386.69;5003133;28;20046;-86
2023/01/18 12:15:12;;;;;;;48.40;25.13;;;;;;;6.24;100.00;98381.81;5005108;23;20794;-90
2023/01/18 12:18:10;;;;;;;49.30;23.98;;;;;;;6.21;100.00;98385.63;5000019;28;20053;-88
2023/01/18 12:21:01;;;;;;;;;;;;;;;6.22;100.00;98391.72;5004879;23;20053;-86
2023/01/18 12:23:52;;;;;;;46.83;24.55;;;;;;;6.35;100.00;98386.59;4979235;28;19925;-86